createdAt,value
2023-01-15T00:02:13.747Z,69.28
2023-01-15T00:04:46.249Z,69.26
2023-01-15T00:07:18.408Z,69.43
2023-01-15T00:09:51.715Z,69.39
2023-01-15T00:12:23.746Z,69.17
2023-01-15T00:14:58.221Z,69.14
2023-01-15T00:17:30.641Z,69.28
2023-01-15T00:20:04.547Z,69.37
2023-01-15T00:22:36.605Z,69.44
2023-01-15T00:25:26.332Z,69.28
2023-01-15T00:28:00.924Z,68.91
2023-01-15T00:30:32.523Z,68.90
2023-01-15T00:33:04.516Z,69.06
2023-01-15T00:35:37.759Z,69.27
2023-01-15T00:38:09.886Z,69.32
2023-01-15T00:40:42.336Z,69.48
2023-01-15T00:43:14.776Z,69.65
2023-01-15T00:45:52.494Z,69.63
2023-01-15T00:48:24.959Z,69.68
2023-01-15T00:50:57.233Z,69.67
2023-01-15T00:53:29.603Z,69.64
2023-01-15T00:56:02.033Z,69.51
2023-01-15T00:58:34.688Z,69.25
2023-01-15T01:01:07.161Z,69.06
2023-01-15T01:03:39.539Z,69.10
2023-01-15T01:06:12.306Z,69.27
2023-01-15T01:08:46.686Z,69.24
2023-01-15T01:11:21.852Z,69.29
2023-01-15T01:13:55.926Z,69.46
2023-01-15T01:16:30.750Z,69.52
2023-01-15T01:19:04.244Z,69.31
2023-01-15T01:21:38.392Z,69.28
2023-01-15T01:24:11.796Z,69.33
2023-01-15T01:26:47.228Z,69.04
2023-01-15T01:29:22.010Z,69.10
2023-01-15T01:31:54.059Z,69.33
2023-01-15T01:34:26.606Z,69.51
2023-01-15T01:36:59.773Z,69.73
2023-01-15T01:39:32.118Z,69.84
2023-01-15T01:42:04.412Z,69.82
2023-01-15T01:44:39.606Z,69.80
2023-01-15T01:47:15.990Z,69.85
2023-01-15T01:49:50.662Z,69.71
2023-01-15T01:52:28.436Z,69.70
2023-01-15T01:55:01.685Z,69.81
2023-01-15T01:57:35.122Z,69.79
2023-01-15T02:00:08.639Z,70.08
2023-01-15T02:02:46.222Z,70.02
2023-01-15T02:05:33.238Z,69.91
2023-01-15T02:08:07.286Z,69.99
2023-01-15T02:10:40.417Z,69.95
2023-01-15T02:13:26.714Z,69.89
2023-01-15T02:16:05.169Z,69.86
2023-01-15T02:18:58.303Z,69.80
2023-01-15T02:21:49.075Z,69.82
2023-01-15T02:24:52.443Z,69.55
2023-01-15T02:27:27.109Z,69.62
2023-01-15T02:30:05.166Z,69.81
2023-01-15T02:32:58.987Z,69.90
2023-01-15T02:35:49.102Z,69.87
2023-01-15T02:38:24.158Z,69.74
2023-01-15T02:40:59.768Z,69.71
2023-01-15T02:43:37.674Z,69.69
2023-01-15T02:46:12.731Z,69.72
2023-01-15T02:48:48.385Z,69.82
2023-01-15T02:51:23.816Z,69.68
2023-01-15T02:53:59.618Z,69.71
2023-01-15T02:56:36.301Z,69.71
2023-01-15T02:59:11.505Z,69.79
2023-01-15T03:01:48.375Z,69.81
2023-01-15T03:04:35.605Z,69.62
2023-01-15T03:07:19.410Z,69.70
2023-01-15T03:09:51.914Z,69.69
2023-01-15T03:13:04.497Z,69.14
2023-01-15T03:16:17.245Z,69.21
2023-01-15T03:18:58.462Z,69.13
2023-01-15T03:21:42.673Z,69.24
2023-01-15T03:24:17.674Z,69.33
2023-01-15T03:26:51.566Z,69.40
2023-01-15T03:29:27.145Z,69.67
2023-01-15T03:32:01.271Z,69.83
2023-01-15T03:34:34.295Z,69.88
2023-01-15T03:37:06.392Z,69.71
2023-01-15T03:39:39.336Z,69.60
2023-01-15T03:42:18.632Z,69.74
2023-01-15T03:45:11.439Z,69.88
2023-01-15T03:47:53.087Z,69.90
2023-01-15T03:50:35.536Z,70.00
2023-01-15T03:53:28.441Z,70.02
2023-01-15T03:56:08.212Z,70.14
2023-01-15T03:58:45.052Z,70.14
2023-01-15T04:01:22.095Z,70.12
2023-01-15T04:03:57.218Z,70.28
2023-01-15T04:06:34.341Z,70.31
2023-01-15T04:09:10.189Z,70.45
2023-01-15T04:11:42.388Z,70.54
2023-01-15T04:14:16.095Z,70.75
2023-01-15T04:16:49.795Z,70.82
2023-01-15T04:19:22.256Z,70.98
2023-01-15T04:21:59.093Z,71.23
2023-01-15T04:24:31.450Z,71.30
2023-01-15T04:27:03.520Z,71.73
2023-01-15T04:29:35.646Z,71.68
2023-01-15T04:32:08.273Z,71.97
2023-01-15T04:34:40.709Z,72.10
2023-01-15T04:37:12.715Z,72.34
2023-01-15T04:39:44.931Z,72.70
2023-01-15T04:42:35.188Z,72.79
2023-01-15T04:45:07.763Z,73.18
2023-01-15T04:47:40.984Z,73.55
2023-01-15T04:50:13.383Z,73.96
2023-01-15T04:52:45.496Z,74.02
2023-01-15T04:55:17.765Z,74.16
2023-01-15T04:57:51.644Z,74.28
2023-01-15T05:00:23.997Z,74.17
2023-01-15T05:02:56.343Z,74.34
2023-01-15T05:05:28.643Z,74.47
2023-01-15T05:08:00.871Z,74.60
2023-01-15T05:10:32.930Z,74.82
2023-01-15T05:13:05.343Z,74.96
2023-01-15T05:15:39.130Z,75.14
2023-01-15T05:18:12.930Z,75.36
2023-01-15T05:20:45.098Z,75.24
2023-01-15T05:23:17.122Z,75.31
2023-01-15T05:25:49.248Z,75.54
2023-01-15T05:28:21.381Z,75.79
2023-01-15T05:30:53.777Z,75.83
2023-01-15T05:33:26.529Z,75.99
2023-01-15T05:36:03.708Z,76.00
2023-01-15T05:38:36.116Z,76.09
2023-01-15T05:41:31.705Z,76.14
2023-01-15T05:44:06.874Z,76.35
2023-01-15T05:46:41.809Z,76.20
2023-01-15T05:49:16.946Z,76.40
2023-01-15T05:51:50.041Z,76.42
2023-01-15T05:54:25.305Z,76.46
2023-01-15T05:56:58.467Z,76.60
2023-01-15T05:59:33.331Z,76.71
2023-01-15T06:02:06.296Z,76.72
2023-01-15T06:04:38.455Z,76.69
2023-01-15T06:07:10.601Z,76.86
2023-01-15T06:09:42.898Z,76.77
2023-01-15T06:12:15.000Z,76.86
2023-01-15T06:14:47.200Z,76.85
2023-01-15T06:17:19.386Z,77.02
2023-01-15T06:19:51.537Z,76.96
2023-01-15T06:22:23.603Z,76.99
2023-01-15T06:24:55.964Z,77.01
2023-01-15T06:27:29.107Z,76.85
2023-01-15T06:30:01.679Z,76.85
2023-01-15T06:32:34.424Z,76.95
2023-01-15T06:35:06.888Z,76.82
2023-01-15T06:37:38.998Z,76.72
2023-01-15T06:40:13.104Z,76.73
2023-01-15T06:43:03.447Z,76.75
2023-01-15T06:45:58.702Z,76.59
2023-01-15T06:48:31.528Z,76.41
2023-01-15T06:51:03.963Z,76.50
2023-01-15T06:53:36.509Z,76.35
2023-01-15T06:56:09.375Z,76.39
2023-01-15T06:58:43.057Z,76.29
2023-01-15T07:01:18.008Z,76.35
2023-01-15T07:03:50.503Z,76.21
2023-01-15T07:06:23.335Z,76.11
2023-01-15T07:08:57.411Z,76.14
2023-01-15T07:11:29.748Z,76.18
2023-01-15T07:14:08.220Z,76.03
2023-01-15T07:16:40.813Z,75.99
2023-01-15T07:19:13.309Z,75.87
2023-01-15T07:21:46.247Z,75.66
2023-01-15T07:24:19.332Z,75.65
2023-01-15T07:26:51.580Z,75.71
2023-01-15T07:29:24.238Z,75.68
2023-01-15T07:31:57.398Z,75.60
2023-01-15T07:34:29.968Z,75.54
2023-01-15T07:37:02.105Z,75.59
2023-01-15T07:39:34.962Z,75.47
2023-01-15T07:42:25.893Z,75.65
2023-01-15T07:45:16.457Z,75.67
2023-01-15T07:48:06.413Z,75.47
2023-01-15T07:50:40.991Z,75.48
2023-01-15T07:53:13.173Z,75.51
2023-01-15T07:55:45.331Z,75.58
2023-01-15T07:58:18.411Z,75.27
2023-01-15T08:00:52.424Z,75.55
2023-01-15T08:03:28.585Z,75.46
2023-01-15T08:06:01.957Z,75.16
2023-01-15T08:08:34.496Z,75.00
2023-01-15T08:11:24.704Z,74.83
2023-01-15T08:14:14.763Z,74.70
2023-01-15T08:16:47.218Z,74.50
2023-01-15T08:19:19.569Z,74.04
2023-01-15T08:21:53.374Z,73.97
2023-01-15T08:24:25.926Z,74.34
2023-01-15T08:26:58.507Z,73.97
2023-01-15T08:29:30.909Z,73.90
2023-01-15T08:32:03.821Z,73.93
2023-01-15T08:34:36.495Z,73.66
2023-01-15T08:37:08.639Z,73.82
2023-01-15T08:39:42.488Z,73.95
2023-01-15T08:42:14.967Z,73.83
2023-01-15T08:44:47.237Z,73.70
2023-01-15T08:47:19.779Z,73.64
2023-01-15T08:49:52.251Z,73.66
2023-01-15T08:52:35.762Z,73.45
2023-01-15T08:55:14.107Z,73.55
2023-01-15T08:57:45.673Z,73.02
2023-01-15T09:00:18.822Z,73.17
2023-01-15T09:02:51.138Z,72.80
2023-01-15T09:05:23.574Z,73.08
2023-01-15T09:07:56.602Z,73.08
2023-01-15T09:10:31.764Z,73.09
2023-01-15T09:13:04.952Z,72.77
2023-01-15T09:15:38.582Z,72.81
2023-01-15T09:18:13.423Z,72.82
2023-01-15T09:20:51.249Z,72.58
2023-01-15T09:23:25.433Z,72.21
2023-01-15T09:26:08.899Z,72.39
2023-01-15T09:28:41.100Z,72.09
2023-01-15T09:31:13.136Z,72.02
2023-01-15T09:33:45.295Z,72.08
2023-01-15T09:36:29.114Z,71.76
2023-01-15T09:39:02.132Z,71.66
2023-01-15T09:42:08.408Z,71.79
2023-01-15T09:45:05.945Z,71.27
2023-01-15T09:47:56.610Z,71.27
2023-01-15T09:50:57.271Z,71.52
2023-01-15T09:53:36.114Z,71.25
2023-01-15T09:56:11.382Z,70.78
2023-01-15T09:58:43.632Z,70.71
2023-01-15T10:01:21.830Z,70.83
2023-01-15T10:04:06.575Z,70.72
2023-01-15T10:07:00.241Z,70.87
2023-01-15T10:09:36.323Z,70.93
2023-01-15T10:12:36.984Z,71.06
2023-01-15T10:15:32.958Z,70.37
2023-01-15T10:18:09.189Z,70.26
2023-01-15T10:21:08.809Z,70.08
2023-01-15T10:24:12.977Z,70.57
2023-01-15T10:26:59.410Z,70.56
2023-01-15T10:29:50.015Z,70.45
2023-01-15T10:33:02.452Z,70.46
2023-01-15T10:36:03.110Z,70.36
2023-01-15T10:39:02.978Z,70.47
2023-01-15T10:41:56.853Z,70.42
2023-01-15T10:44:43.754Z,70.35
2023-01-15T10:47:18.829Z,70.36
2023-01-15T10:49:55.060Z,70.26
2023-01-15T10:52:34.660Z,70.16
2023-01-15T10:55:10.370Z,70.07
2023-01-15T10:58:10.967Z,69.92
2023-01-15T11:00:48.658Z,69.79
2023-01-15T11:03:24.567Z,70.12
2023-01-15T11:06:00.220Z,70.01
2023-01-15T11:09:07.365Z,69.84
2023-01-15T11:11:19.373Z,69.66
2023-01-15T11:14:15.332Z,69.38
2023-01-15T11:17:07.272Z,69.06
2023-01-15T11:19:45.274Z,69.00
2023-01-15T11:22:23.075Z,68.80
2023-01-15T11:24:58.821Z,68.67
2023-01-15T11:27:36.983Z,69.24
2023-01-15T11:30:46.306Z,69.20
2023-01-15T11:33:32.325Z,68.54
2023-01-15T11:36:07.920Z,68.73
2023-01-15T11:38:48.676Z,68.37
2023-01-15T11:41:54.963Z,68.65
2023-01-15T11:44:45.156Z,68.57
2023-01-15T11:47:36.960Z,68.31
2023-01-15T11:50:37.224Z,68.40
2023-01-15T11:53:12.214Z,68.08
2023-01-15T11:55:53.300Z,68.38
2023-01-15T11:58:25.545Z,68.22
2023-01-15T12:00:59.682Z,67.87
2023-01-15T12:03:34.227Z,67.64
2023-01-15T12:06:09.340Z,67.87
2023-01-15T12:08:52.665Z,67.84
2023-01-15T12:11:30.562Z,67.01
2023-01-15T12:14:39.831Z,66.69
2023-01-15T12:17:21.016Z,66.65
2023-01-15T12:20:27.829Z,66.24
2023-01-15T12:23:07.779Z,66.36
2023-01-15T12:25:57.031Z,66.04
2023-01-15T12:28:34.879Z,66.43
2023-01-15T12:31:10.385Z,66.46
2023-01-15T12:34:09.176Z,66.38
2023-01-15T12:36:44.230Z,66.35
2023-01-15T12:39:25.758Z,66.08
2023-01-15T12:42:21.434Z,66.28
2023-01-15T12:45:04.688Z,66.47
2023-01-15T12:47:52.214Z,66.83
2023-01-15T12:50:53.145Z,66.64
2023-01-15T12:53:28.015Z,66.68
2023-01-15T12:56:17.950Z,66.93
2023-01-15T12:59:02.310Z,66.81
2023-01-15T13:01:52.132Z,66.85
2023-01-15T13:04:43.540Z,66.70
2023-01-15T13:07:36.000Z,66.77
2023-01-15T13:10:20.258Z,67.18
2023-01-15T13:12:55.461Z,67.05
2023-01-15T13:15:30.872Z,67.51
2023-01-15T13:18:12.830Z,67.38
2023-01-15T13:20:51.647Z,67.47
2023-01-15T13:23:44.175Z,67.52
2023-01-15T13:26:42.133Z,67.32
2023-01-15T13:29:32.288Z,67.49
2023-01-15T13:32:10.275Z,67.37
2023-01-15T13:34:48.430Z,67.52
2023-01-15T13:37:23.520Z,67.62
2023-01-15T13:39:58.870Z,67.77
2023-01-15T13:42:32.830Z,67.49
2023-01-15T13:45:10.849Z,67.35
2023-01-15T13:47:48.489Z,67.27
2023-01-15T13:50:26.738Z,67.14
2023-01-15T13:53:10.541Z,67.02
2023-01-15T13:55:43.985Z,66.89
2023-01-15T13:58:30.610Z,66.73
2023-01-15T14:01:09.433Z,66.34
2023-01-15T14:03:41.466Z,66.33
2023-01-15T14:06:13.749Z,66.15
2023-01-15T14:08:47.089Z,66.41
2023-01-15T14:11:40.158Z,66.60
2023-01-15T14:14:43.508Z,66.81
2023-01-15T14:17:52.699Z,66.93
2023-01-15T14:20:54.103Z,66.68
2023-01-15T14:23:53.820Z,66.44
2023-01-15T14:26:44.061Z,66.81
2023-01-15T14:29:22.458Z,66.97
2023-01-15T14:32:09.204Z,67.20
2023-01-15T14:34:40.754Z,66.94
2023-01-15T14:37:30.777Z,66.72
2023-01-15T14:40:05.660Z,66.74
2023-01-15T14:42:58.437Z,66.50
2023-01-15T14:45:39.340Z,66.47
2023-01-15T14:48:32.188Z,66.56
2023-01-15T14:51:24.090Z,66.71
2023-01-15T14:53:59.353Z,66.52
2023-01-15T14:56:35.120Z,66.81
2023-01-15T14:59:22.685Z,66.71
2023-01-15T15:02:04.467Z,66.71
2023-01-15T15:04:56.337Z,66.71
2023-01-15T15:07:41.686Z,66.67
2023-01-15T15:10:36.088Z,66.47
2023-01-15T15:13:12.773Z,66.44
2023-01-15T15:15:50.883Z,66.44
2023-01-15T15:18:39.145Z,66.63
2023-01-15T15:21:20.656Z,66.58
2023-01-15T15:23:58.655Z,66.34
2023-01-15T15:26:36.285Z,66.55
2023-01-15T15:29:20.423Z,66.07
2023-01-15T15:31:57.528Z,66.18
2023-01-15T15:34:35.659Z,66.18
2023-01-15T15:37:13.870Z,66.17
2023-01-15T15:39:55.264Z,66.64
2023-01-15T15:42:47.657Z,66.41
2023-01-15T15:45:40.567Z,66.42
2023-01-15T15:48:42.793Z,66.37
2023-01-15T15:51:32.962Z,66.59
2023-01-15T15:54:17.444Z,66.04
2023-01-15T15:57:05.942Z,66.21
2023-01-15T15:59:51.235Z,66.13
2023-01-15T16:02:36.665Z,65.95
2023-01-15T16:05:23.704Z,66.09
2023-01-15T16:07:56.738Z,66.09
2023-01-15T16:10:34.256Z,66.46
2023-01-15T16:13:08.893Z,66.19
2023-01-15T16:15:43.450Z,66.57
2023-01-15T16:18:30.155Z,66.40
2023-01-15T16:21:02.655Z,66.38
2023-01-15T16:23:34.866Z,66.39
2023-01-15T16:26:23.125Z,66.13
2023-01-15T16:28:58.584Z,66.22
2023-01-15T16:31:36.322Z,66.44
2023-01-15T16:34:08.466Z,66.36
2023-01-15T16:36:44.885Z,66.55
2023-01-15T16:39:19.916Z,66.45
2023-01-15T16:41:54.363Z,66.61
2023-01-15T16:44:38.213Z,66.40
2023-01-15T16:47:13.209Z,66.28
2023-01-15T16:49:45.346Z,65.88
2023-01-15T16:52:36.668Z,65.67
2023-01-15T16:55:23.555Z,65.89
2023-01-15T16:57:58.685Z,65.77
2023-01-15T17:00:32.839Z,66.06
2023-01-15T17:03:05.311Z,66.08
2023-01-15T17:05:37.243Z,66.35
2023-01-15T17:08:21.199Z,66.51
2023-01-15T17:11:01.736Z,66.67
2023-01-15T17:13:39.700Z,66.66
2023-01-15T17:16:17.873Z,66.79
2023-01-15T17:18:51.791Z,66.68
2023-01-15T17:21:28.818Z,66.76
2023-01-15T17:24:01.136Z,66.54
2023-01-15T17:26:33.391Z,66.83
2023-01-15T17:29:05.660Z,66.84
2023-01-15T17:31:39.197Z,67.04
2023-01-15T17:34:12.208Z,67.15
2023-01-15T17:36:44.293Z,67.08
2023-01-15T17:39:18.109Z,66.99
2023-01-15T17:41:50.136Z,66.60
2023-01-15T17:44:22.812Z,66.79
2023-01-15T17:46:54.760Z,66.74
2023-01-15T17:49:26.938Z,66.88
2023-01-15T17:51:59.986Z,66.76
2023-01-15T17:54:49.919Z,66.77
2023-01-15T17:57:39.742Z,66.87
2023-01-15T18:00:30.799Z,66.82
2023-01-15T18:03:20.899Z,66.90
2023-01-15T18:05:53.389Z,67.13
2023-01-15T18:08:25.470Z,66.95
2023-01-15T18:10:57.525Z,66.81
2023-01-15T18:13:30.523Z,66.72
2023-01-15T18:16:02.771Z,66.92
2023-01-15T18:18:35.528Z,66.73
2023-01-15T18:21:07.779Z,66.83
2023-01-15T18:23:39.851Z,66.75
2023-01-15T18:26:11.928Z,66.48
2023-01-15T18:28:45.573Z,66.62
2023-01-15T18:31:17.755Z,66.75
2023-01-15T18:33:50.961Z,66.48
2023-01-15T18:36:23.190Z,66.80
2023-01-15T18:38:55.861Z,66.92
2023-01-15T18:41:38.344Z,66.66
2023-01-15T18:44:30.526Z,66.91
2023-01-15T18:47:05.551Z,67.00
2023-01-15T18:49:37.793Z,66.81
2023-01-15T18:52:28.447Z,66.76
2023-01-15T18:55:01.017Z,66.93
2023-01-15T18:57:35.088Z,66.89
2023-01-15T19:00:07.105Z,66.79
2023-01-15T19:02:40.153Z,67.07
2023-01-15T19:05:13.236Z,66.56
2023-01-15T19:07:45.948Z,66.56
2023-01-15T19:10:19.642Z,66.56
2023-01-15T19:12:51.655Z,66.58
2023-01-15T19:15:41.212Z,66.77
2023-01-15T19:18:31.070Z,66.68
2023-01-15T19:21:08.145Z,66.70
2023-01-15T19:23:41.198Z,66.60
2023-01-15T19:26:13.199Z,66.58
2023-01-15T19:28:45.425Z,66.69
2023-01-15T19:31:36.847Z,66.69
2023-01-15T19:34:32.691Z,66.78
2023-01-15T19:36:44.186Z,66.70
2023-01-15T19:39:17.620Z,66.50
2023-01-15T19:42:07.186Z,66.46
2023-01-15T19:44:57.340Z,66.63
2023-01-15T19:47:55.865Z,66.56
2023-01-15T19:50:33.507Z,66.34
2023-01-15T19:53:07.348Z,66.41
2023-01-15T19:55:41.459Z,66.46
2023-01-15T19:58:13.682Z,66.61
2023-01-15T20:00:48.885Z,66.67
2023-01-15T20:03:21.090Z,66.05
2023-01-15T20:05:53.125Z,66.19
2023-01-15T20:08:25.285Z,66.36
2023-01-15T20:10:57.283Z,66.47
2023-01-15T20:13:46.861Z,66.57
2023-01-15T20:16:22.545Z,66.68
2023-01-15T20:18:55.726Z,66.61
2023-01-15T20:21:27.760Z,66.73
2023-01-15T20:24:00.041Z,66.89
2023-01-15T20:26:31.887Z,66.78
2023-01-15T20:29:03.930Z,66.90
2023-01-15T20:31:36.251Z,67.02
2023-01-15T20:34:08.190Z,67.14
2023-01-15T20:36:40.282Z,67.15
2023-01-15T20:39:12.111Z,66.90
2023-01-15T20:42:01.698Z,66.58
2023-01-15T20:44:51.296Z,66.71
2023-01-15T20:47:43.650Z,66.96
2023-01-15T20:50:17.823Z,66.90
2023-01-15T20:52:50.120Z,66.87
2023-01-15T20:55:23.381Z,67.13
2023-01-15T20:57:55.624Z,66.43
2023-01-15T21:00:28.147Z,66.46
2023-01-15T21:03:02.035Z,66.29
2023-01-15T21:05:34.509Z,66.49
2023-01-15T21:08:07.101Z,66.61
2023-01-15T21:10:39.490Z,66.48
2023-01-15T21:13:13.305Z,66.67
2023-01-15T21:15:44.763Z,66.37
2023-01-15T21:18:16.640Z,66.22
2023-01-15T21:20:48.839Z,66.29
2023-01-15T21:23:21.430Z,66.39
2023-01-15T21:25:55.215Z,66.13
2023-01-15T21:28:27.391Z,66.04
2023-01-15T21:31:01.582Z,66.39
2023-01-15T21:33:33.431Z,66.51
2023-01-15T21:36:10.421Z,66.52
2023-01-15T21:38:43.018Z,66.41
2023-01-15T21:41:16.233Z,66.69
2023-01-15T21:44:05.681Z,66.80
2023-01-15T21:46:38.436Z,66.76
2023-01-15T21:49:10.395Z,66.83
2023-01-15T21:51:42.654Z,66.87
2023-01-15T21:54:15.046Z,66.91
2023-01-15T21:56:47.500Z,66.95
2023-01-15T21:59:21.916Z,66.91
2023-01-15T22:01:58.229Z,66.86
2023-01-15T22:04:38.155Z,66.75
2023-01-15T22:07:11.658Z,66.94
2023-01-15T22:09:43.675Z,66.81
2023-01-15T22:12:15.943Z,66.99
2023-01-15T22:14:49.367Z,66.94
2023-01-15T22:17:21.467Z,66.83
2023-01-15T22:19:53.766Z,66.61
2023-01-15T22:22:28.061Z,66.60
2023-01-15T22:25:00.177Z,66.67
2023-01-15T22:27:34.202Z,66.87
2023-01-15T22:30:07.254Z,66.89
2023-01-15T22:32:39.703Z,67.13
2023-01-15T22:35:11.765Z,67.13
2023-01-15T22:37:44.075Z,67.21
2023-01-15T22:40:16.278Z,67.12
2023-01-15T22:42:48.680Z,67.11
2023-01-15T22:45:20.866Z,67.05
2023-01-15T22:47:53.195Z,67.33
2023-01-15T22:50:25.512Z,67.05
2023-01-15T22:52:57.483Z,67.02
2023-01-15T22:55:29.532Z,67.00
2023-01-15T22:58:01.829Z,67.08
2023-01-15T23:00:34.415Z,67.21
2023-01-15T23:03:06.428Z,67.22
2023-01-15T23:05:39.486Z,66.90
2023-01-15T23:08:11.949Z,67.10
2023-01-15T23:10:46.611Z,67.21
2023-01-15T23:13:18.957Z,67.25
2023-01-15T23:15:59.374Z,67.00
2023-01-15T23:18:32.627Z,67.05
2023-01-15T23:21:09.960Z,66.83
2023-01-15T23:23:42.503Z,67.15
2023-01-15T23:26:18.097Z,67.06
2023-01-15T23:28:50.968Z,67.04
2023-01-15T23:31:23.742Z,67.04
2023-01-15T23:33:56.300Z,67.14
2023-01-15T23:36:28.532Z,66.75
2023-01-15T23:39:00.829Z,67.07
2023-01-15T23:41:50.514Z,67.27
2023-01-15T23:44:40.804Z,67.08
2023-01-15T23:47:13.072Z,66.85
2023-01-15T23:49:45.483Z,66.53
2023-01-15T23:52:17.971Z,66.77
2023-01-15T23:54:50.270Z,66.88
2023-01-15T23:57:22.495Z,66.74
2023-01-15T23:59:54.667Z,66.73
